Time;durP1;ratioP1;P1;durP2;ratioP2;P2;SDS_P1;SDS_P2;PMS_P1;PMS_P2;Temp;Humidity;BMP_temperature;BMP_pressure;BME280_temperature;BME280_humidity;BME280_pressure;Samples;Min_cycle;Max_cycle;Signal;HPM_P1;HPM_P2
2023/09/12 00:03:14;;;;;;;15.38;4.32;;;;;;;24.02;100.00;100650.66;20889246;28;20080;-72
2023/09/12 00:13:38;;;;;;;16.65;4.07;;;;;;;23.96;100.00;100656.31;20901592;28;20400;-73
2023/09/12 00:24:02;;;;;;;14.88;3.92;;;;;;;23.92;100.00;100650.16;20929605;28;20048;-72
2023/09/12 00:34:25;;;;;;;14.85;3.50;;;;;;;23.86;100.00;100655.78;20886621;28;20055;-72
2023/09/12 00:44:49;;;;;;;16.55;3.63;;;;;;;23.84;100.00;100652.28;20926490;28;20732;-72
2023/09/12 00:55:12;;;;;;;15.32;3.42;;;;;;;23.82;100.00;100656.88;20884809;28;20484;-73
2023/09/12 01:05:37;;;;;;;18.10;3.65;;;;;;;23.80;100.00;100651.53;20897877;28;20045;-73
2023/09/12 01:15:59;;;;;;;13.25;4.03;;;;;;;23.77;100.00;100653.47;20897075;28;20147;-73
2023/09/12 01:26:38;;;;;;;17.73;3.72;;;;;;;23.76;100.00;100655.28;20883380;28;20493;-73
2023/09/12 01:37:03;;;;;;;13.23;3.60;;;;;;;23.72;100.00;100664.44;20881909;28;20505;-73
2023/09/12 01:47:29;;;;;;;15.57;3.22;;;;;;;23.72;100.00;100659.03;20882172;28;20080;-73
2023/09/12 01:57:55;;;;;;;17.40;3.50;;;;;;;23.68;100.00;100670.91;20894942;28;20045;-73
2023/09/12 02:08:18;;;;;;;16.90;3.25;;;;;;;23.68;100.00;100689.78;20881413;28;20555;-72
2023/09/12 02:18:42;;;;;;;14.27;2.95;;;;;;;23.74;100.00;100705.72;20912888;28;20072;-72
2023/09/12 02:29:06;;;;;;;11.40;2.67;;;;;;;23.76;100.00;100719.97;20924816;28;20049;-73
2023/09/12 02:39:30;;;;;;;11.55;3.15;;;;;;;23.87;100.00;100710.59;20924250;28;20084;-72
2023/09/12 02:49:52;;;;;;;17.02;3.35;;;;;;;23.84;100.00;100704.38;20827347;28;20053;-73
2023/09/12 03:00:17;;;;;;;23.05;3.47;;;;;;;23.77;100.00;100710.97;20812210;28;20050;-73
2023/09/12 03:10:40;;;;;;;13.18;2.75;;;;;;;23.73;100.00;100711.16;20869884;28;20469;-72
2023/09/12 03:21:04;;;;;;;13.73;2.92;;;;;;;23.68;100.00;100705.94;20893205;28;20049;-73
2023/09/12 03:31:28;;;;;;;11.38;2.63;;;;;;;23.66;100.00;100721.28;20890100;28;20045;-73
2023/09/12 03:41:54;;;;;;;12.20;2.83;;;;;;;23.67;100.00;100739.22;20892039;28;20060;-74
2023/09/12 03:52:17;;;;;;;16.33;3.47;;;;;;;23.69;100.00;100740.06;20890095;28;20489;-73
2023/09/12 04:02:42;;;;;;;11.52;2.90;;;;;;;23.69;100.00;100742.75;20890035;28;20501;-72
2023/09/12 04:13:05;;;;;;;10.63;3.03;;;;;;;23.72;100.00;100748.00;20901805;28;20090;-72
2023/09/12 04:23:29;;;;;;;13.68;2.80;;;;;;;23.76;100.00;100749.66;20929461;28;20041;-72
2023/09/12 04:33:53;;;;;;;15.65;2.72;;;;;;;23.74;100.00;100753.34;20914739;28;20063;-72
2023/09/12 04:44:17;;;;;;;13.07;3.05;;;;;;;23.80;100.00;100766.59;20913152;28;20052;-72
2023/09/12 04:54:39;;;;;;;13.38;2.83;;;;;;;23.88;100.00;100779.78;20884255;28;20053;-72
2023/09/12 05:05:04;;;;;;;15.90;2.38;;;;;;;24.03;100.00;100777.34;20884468;28;20061;-72
2023/09/12 05:15:27;;;;;;;16.13;2.63;;;;;;;24.13;100.00;100784.16;20826986;28;20049;-72
2023/09/12 05:25:51;;;;;;;14.13;3.03;;;;;;;24.32;100.00;100792.41;20879145;28;20045;-72
2023/09/12 05:36:14;;;;;;;14.45;2.83;;;;;;;24.45;100.00;100800.88;20909918;28;20052;-72
2023/09/12 05:46:39;;;;;;;12.80;2.67;;;;;;;24.55;100.00;100800.44;20867869;28;20044;-72
2023/09/12 05:57:02;;;;;;;14.52;2.85;;;;;;;25.40;100.00;100821.09;20931959;28;20053;-73
2023/09/12 06:07:26;;;;;;;12.35;2.85;;;;;;;26.07;100.00;100822.53;20898451;28;20045;-73
2023/09/12 06:17:49;;;;;;;9.60;2.17;;;;;;;26.83;100.00;100835.97;20937911;28;20128;-74
2023/09/12 06:28:14;;;;;;;12.00;2.28;;;;;;;27.73;100.00;100848.44;20938030;28;20057;-74
2023/09/12 06:38:37;;;;;;;8.63;2.10;;;;;;;27.98;100.00;100856.13;20897821;28;20053;-74
2023/09/12 06:49:01;;;;;;;9.18;1.90;;;;;;;28.75;100.00;100866.31;20919644;28;20058;-73
2023/09/12 06:59:24;;;;;;;10.25;1.98;;;;;;;29.32;96.84;100892.78;20936949;28;20061;-74
2023/09/12 07:09:48;;;;;;;11.68;2.00;;;;;;;29.59;90.13;100894.84;20934609;28;20049;-74
2023/09/12 07:20:12;;;;;;;11.63;2.10;;;;;;;29.19;89.89;100894.47;20934986;28;20049;-74
2023/09/12 07:30:37;;;;;;;11.65;2.20;;;;;;;29.91;89.14;100899.16;20891491;28;20056;-74
2023/09/12 07:41:00;;;;;;;7.72;1.73;;;;;;;30.26;83.66;100909.72;20933577;28;20048;-74
2023/09/12 07:51:24;;;;;;;10.77;2.33;;;;;;;30.68;80.00;100920.56;20918595;28;20155;-74
2023/09/12 08:01:47;;;;;;;9.45;2.67;;;;;;;30.78;74.35;100927.19;20918234;28;20065;-73
2023/09/12 08:12:11;;;;;;;9.88;1.80;;;;;;;30.98;73.00;100934.06;20930778;28;20057;-74
2023/09/12 08:22:33;;;;;;;13.63;2.20;;;;;;;31.31;68.36;100933.63;20930369;28;20528;-74
2023/09/12 08:32:57;;;;;;;9.70;2.47;;;;;;;31.72;63.99;100938.13;20900275;28;20076;-74
2023/09/12 08:43:21;;;;;;;14.95;2.30;;;;;;;31.88;59.66;100941.56;20920340;28;20631;-74
2023/09/12 08:53:45;;;;;;;17.20;4.63;;;;;;;32.27;57.77;100944.22;20897476;28;20084;-74
2023/09/12 09:04:08;;;;;;;11.00;1.95;;;;;;;32.38;53.30;100932.50;20898082;28;20049;-73
2023/09/12 09:14:32;;;;;;;12.40;2.35;;;;;;;32.22;51.38;100929.16;20891030;28;20045;-73
2023/09/12 09:25:12;;;;;;;9.57;2.45;;;;;;;32.38;51.14;100944.31;20897109;28;20045;-74
2023/09/12 09:35:36;;;;;;;10.57;2.13;;;;;;;32.76;50.29;100951.59;20889083;28;20653;-74
2023/09/12 09:45:59;;;;;;;7.17;1.83;;;;;;;32.97;48.79;100955.47;20880293;28;20148;-74
2023/09/12 09:56:25;;;;;;;9.88;1.98;;;;;;;33.24;48.15;100958.03;20917479;28;20052;-74
2023/09/12 10:06:49;;;;;;;8.27;2.13;;;;;;;33.08;47.17;100961.00;20908647;28;20076;-74
2023/09/12 10:17:16;;;;;;;8.60;2.10;;;;;;;33.30;47.06;100964.91;20922163;28;20052;-74
2023/09/12 10:27:39;;;;;;;12.50;2.42;;;;;;;33.06;47.40;100968.47;20916286;28;20057;-74
2023/09/12 10:38:05;;;;;;;11.85;2.50;;;;;;;32.94;47.58;100972.13;20893305;28;20049;-73
2023/09/12 10:48:27;;;;;;;;;;;;;;;32.39;49.10;100981.59;20895159;28;20107;-74
2023/09/12 10:59:14;;;;;;;8.80;2.53;;;;;;;32.20;48.97;100966.63;20892630;28;19979;-73
2023/09/12 11:09:37;;;;;;;12.32;2.08;;;;;;;31.99;49.52;100955.31;20890894;28;20162;-74
2023/09/12 11:20:09;;;;;;;10.43;2.10;;;;;;;31.85;50.37;100955.41;20903317;28;20051;-74
2023/09/12 11:30:33;;;;;;;12.77;2.28;;;;;;;31.57;51.21;100957.28;20904802;28;20497;-74
2023/09/12 11:41:00;;;;;;;12.80;3.08;;;;;;;31.39;53.23;100953.09;20905961;28;20049;-74
2023/09/12 11:51:26;;;;;;;9.68;2.67;;;;;;;31.22;52.56;100943.34;20932217;28;20183;-74
2023/09/12 12:01:51;;;;;;;11.93;2.60;;;;;;;31.17;53.82;100955.56;20918071;28;20095;-74
2023/09/12 12:12:14;;;;;;;14.23;2.65;;;;;;;30.97;55.18;100954.13;20917126;28;20053;-74
2023/09/12 12:22:39;;;;;;;13.02;2.95;;;;;;;30.87;56.18;100932.00;20929973;28;20144;-74
2023/09/12 12:33:02;;;;;;;9.98;2.70;;;;;;;30.61;58.93;100949.22;20915652;28;20451;-74
2023/09/12 12:43:27;;;;;;;14.25;3.03;;;;;;;30.53;62.78;100937.03;20928943;28;20076;-74
2023/09/12 12:53:52;;;;;;;12.68;2.50;;;;;;;30.36;63.12;100940.81;20886237;28;20416;-74
2023/09/12 13:04:17;;;;;;;7.47;1.88;;;;;;;30.21;63.17;100936.34;20876636;28;20397;-73
2023/09/12 13:14:39;;;;;;;13.43;2.42;;;;;;;30.17;61.65;100941.13;20897008;28;20084;-73
2023/09/12 13:25:03;;;;;;;14.35;2.85;;;;;;;30.14;61.53;100930.41;20896453;28;20049;-74
2023/09/12 13:35:26;;;;;;;12.98;3.08;;;;;;;29.82;66.08;100929.66;20881212;28;20053;-73
2023/09/12 13:45:50;;;;;;;12.40;2.92;;;;;;;29.67;67.55;100930.59;20895917;28;20041;-74
2023/09/12 13:56:12;;;;;;;12.75;2.85;;;;;;;29.54;71.70;100925.03;20921125;28;20152;-73
2023/09/12 14:06:36;;;;;;;14.15;3.17;;;;;;;29.79;71.73;100927.16;20922901;28;20134;-73
2023/09/12 14:16:59;;;;;;;15.50;3.38;;;;;;;29.63;73.47;100929.91;20929357;28;20374;-73
2023/09/12 14:27:23;;;;;;;12.40;3.22;;;;;;;29.69;74.62;100917.78;20932029;28;20056;-73
2023/09/12 14:37:46;;;;;;;13.63;3.42;;;;;;;29.26;81.23;100911.31;20902685;28;20061;-72
2023/09/12 14:48:10;;;;;;;11.82;4.05;;;;;;;28.68;87.87;100900.22;20895292;28;20509;-73
2023/09/12 14:58:33;;;;;;;13.32;3.83;;;;;;;28.21;92.65;100895.63;20921602;28;20045;-73
2023/09/12 15:08:57;;;;;;;11.25;3.63;;;;;;;27.79;93.72;100912.34;20936460;28;20057;-73
2023/09/12 15:19:20;;;;;;;16.42;3.78;;;;;;;27.50;92.93;100915.72;20934607;28;20061;-73
2023/09/12 15:29:44;;;;;;;13.88;3.45;;;;;;;27.27;96.21;100927.72;20919159;28;20061;-72
2023/09/12 15:40:08;;;;;;;18.58;3.50;;;;;;;27.11;96.64;100937.63;20891872;28;20076;-73
2023/09/12 15:50:32;;;;;;;14.60;3.10;;;;;;;26.84;98.62;100951.53;20918786;28;20530;-73
2023/09/12 16:00:54;;;;;;;16.10;3.55;;;;;;;26.66;100.00;100944.28;20890254;28;20098;-73
2023/09/12 16:11:19;;;;;;;15.15;4.00;;;;;;;26.44;100.00;100957.97;20930993;28;20513;-72
2023/09/12 16:21:42;;;;;;;15.23;4.35;;;;;;;26.22;100.00;100956.28;20930002;28;20393;-73
2023/09/12 16:32:10;;;;;;;13.90;3.70;;;;;;;26.06;100.00;100978.63;20929325;28;20382;-73
2023/09/12 16:42:33;;;;;;;11.80;3.38;;;;;;;25.88;100.00;100995.69;20880885;28;20044;-72
2023/09/12 16:52:57;;;;;;;10.27;3.22;;;;;;;25.86;100.00;100996.72;20912505;28;20077;-72
2023/09/12 17:03:20;;;;;;;13.27;3.83;;;;;;;25.78;100.00;101000.63;20924438;28;20049;-73
2023/09/12 17:13:44;;;;;;;15.23;3.67;;;;;;;25.82;100.00;101016.72;20896024;28;20092;-73
2023/09/12 17:24:07;;;;;;;16.40;5.20;;;;;;;25.75;100.00;101029.63;20895407;28;20135;-73
2023/09/12 17:34:41;;;;;;;12.85;2.92;;;;;;;25.70;100.00;101032.53;20895788;28;20037;-73
2023/09/12 17:45:05;;;;;;;11.60;2.85;;;;;;;25.64;100.00;101054.44;20895162;28;20529;-72
2023/09/12 17:55:29;;;;;;;13.43;2.95;;;;;;;25.61;100.00;101059.09;20921189;28;20041;-73
2023/09/12 18:05:52;;;;;;;13.52;3.90;;;;;;;25.56;100.00;101070.06;20921771;28;20056;-73
2023/09/12 18:16:17;;;;;;;10.40;3.00;;;;;;;25.54;100.00;101077.34;20879488;28;20390;-72
2023/09/12 18:26:40;;;;;;;9.82;3.97;;;;;;;25.48;100.00;101092.94;20907408;28;20560;-72
2023/09/12 18:37:06;;;;;;;12.70;2.85;;;;;;;25.34;100.00;101097.09;20907996;28;20048;-72
2023/09/12 18:47:31;;;;;;;14.57;3.45;;;;;;;25.26;100.00;101099.25;20908146;28;20053;-73
2023/09/12 18:57:56;;;;;;;12.68;3.38;;;;;;;25.20;100.00;101099.50;20921165;28;20045;-72
2023/09/12 19:08:20;;;;;;;14.00;3.08;;;;;;;25.13;100.00;101113.28;20935802;28;20041;-72
2023/09/12 19:18:45;;;;;;;11.52;2.72;;;;;;;24.94;100.00;101105.88;20934045;28;20055;-72
2023/09/12 19:29:08;;;;;;;13.68;3.10;;;;;;;24.82;100.00;101113.53;20919820;28;20110;-72
2023/09/12 19:39:33;;;;;;;10.45;2.83;;;;;;;24.74;100.00;101113.84;20932045;28;20049;-73
2023/09/12 19:49:55;;;;;;;14.90;3.05;;;;;;;24.58;100.00;101109.94;20903206;28;20056;-72
2023/09/12 20:00:19;;;;;;;12.00;2.30;;;;;;;24.49;100.00;101105.75;20930830;28;20447;-72
2023/09/12 20:10:42;;;;;;;13.07;2.75;;;;;;;24.40;100.00;101110.59;20929272;28;20095;-72
2023/09/12 20:21:06;;;;;;;11.57;2.75;;;;;;;24.28;100.00;101111.94;20888144;28;20045;-72
2023/09/12 20:31:29;;;;;;;9.30;2.75;;;;;;;24.19;100.00;101106.84;20922337;28;20417;-72
2023/09/12 20:41:55;;;;;;;10.13;2.72;;;;;;;24.13;100.00;101105.22;20927738;28;20108;-72
2023/09/12 20:52:19;;;;;;;12.00;2.90;;;;;;;24.10;100.00;101093.63;20926845;28;20382;-73
2023/09/12 21:02:45;;;;;;;8.43;2.55;;;;;;;24.02;100.00;101093.94;20924275;28;20049;-74
2023/09/12 21:13:08;;;;;;;15.35;3.65;;;;;;;23.94;100.00;101089.72;20897579;28;20080;-73
2023/09/12 21:23:32;;;;;;;10.35;3.17;;;;;;;23.85;100.00;101096.28;20892351;28;20080;-73
2023/09/12 21:33:54;;;;;;;11.32;2.70;;;;;;;23.76;100.00;101077.75;20794443;28;20060;-73
2023/09/12 21:44:19;;;;;;;11.38;2.80;;;;;;;23.76;100.00;101081.28;20865672;28;20060;-73
2023/09/12 21:54:42;;;;;;;10.43;2.97;;;;;;;23.73;100.00;101075.13;20923272;28;20501;-73
2023/09/12 22:05:07;;;;;;;10.43;3.22;;;;;;;23.69;100.00;101077.06;20924019;28;20049;-73
2023/09/12 22:15:29;;;;;;;11.85;2.40;;;;;;;23.67;100.00;101070.84;20923167;28;20081;-72
2023/09/12 22:25:56;;;;;;;13.25;2.90;;;;;;;23.65;100.00;101074.50;20908692;28;20046;-72
2023/09/12 22:36:19;;;;;;;9.30;2.92;;;;;;;23.59;100.00;101059.41;20884995;28;20056;-73
2023/09/12 22:46:43;;;;;;;11.18;3.33;;;;;;;23.54;100.00;101065.91;20910219;28;20126;-73
2023/09/12 22:57:06;;;;;;;12.80;2.72;;;;;;;23.45;100.00;101059.84;20923250;28;20045;-72
2023/09/12 23:07:30;;;;;;;11.68;2.80;;;;;;;23.41;100.00;101044.72;20922341;28;20139;-73
2023/09/12 23:17:53;;;;;;;10.77;2.83;;;;;;;23.39;100.00;101051.97;20934027;28;20091;-73
2023/09/12 23:28:17;;;;;;;9.85;2.55;;;;;;;23.34;100.00;101053.94;20934206;28;20049;-73
2023/09/12 23:38:41;;;;;;;10.25;2.65;;;;;;;23.31;100.00;101061.22;20933321;28;20064;-73
2023/09/12 23:49:05;;;;;;;11.38;2.78;;;;;;;23.26;100.00;101050.59;20903208;28;20049;-73
2023/09/12 23:59:27;;;;;;;11.10;2.72;;;;;;;23.22;100.00;101062.41;20931263;28;20159;-72
